createdAt,value
2016-08-15T00:00:07.737Z,24.22
2016-08-15T00:00:17.736Z,24.24
2016-08-15T00:00:27.730Z,24.18
2016-08-15T00:00:37.729Z,24.22
2016-08-15T00:00:47.728Z,24.21
2016-08-15T00:00:57.724Z,24.2
2016-08-15T00:01:07.724Z,24.22
2016-08-15T00:01:17.722Z,24.2
2016-08-15T00:01:27.721Z,24.16
2016-08-15T00:01:37.719Z,24.18
2016-08-15T00:01:47.716Z,24.21
2016-08-15T00:01:56.985Z,24.21
2016-08-15T00:02:07.720Z,24.18
2016-08-15T00:02:17.710Z,24.13
2016-08-15T00:02:27.707Z,24.18
2016-08-15T00:02:37.707Z,24.22
2016-08-15T00:02:47.710Z,24.22
2016-08-15T00:02:57.701Z,24.21
2016-08-15T00:03:07.697Z,24.15
2016-08-15T00:03:17.699Z,24.27
2016-08-15T00:03:27.699Z,24.21
2016-08-15T00:03:37.695Z,24.3
2016-08-15T00:03:47.693Z,24.21
2016-08-15T00:03:57.692Z,24.22
2016-08-15T00:04:07.692Z,24.22
2016-08-15T00:04:17.687Z,24.21
2016-08-15T00:04:27.684Z,24.25
2016-08-15T00:04:36.953Z,24.2
2016-08-15T00:04:47.685Z,24.21
2016-08-15T00:04:57.682Z,24.27
2016-08-15T00:05:07.678Z,24.28
2016-08-15T00:05:17.674Z,24.21
2016-08-15T00:05:27.680Z,24.24
2016-08-15T00:05:37.673Z,24.15
2016-08-15T00:05:47.666Z,24.28
2016-08-15T00:05:57.667Z,24.13
2016-08-15T00:06:07.665Z,24.2
2016-08-15T00:06:17.663Z,24.24
2016-08-15T00:06:27.665Z,24.18
2016-08-15T00:06:37.663Z,24.25
2016-08-15T00:06:47.660Z,24.15
2016-08-15T00:06:57.655Z,24.25
2016-08-15T00:07:07.653Z,24.25
2016-08-15T00:07:17.656Z,24.24
2016-08-15T00:07:27.653Z,24.21
2016-08-15T00:07:37.647Z,24.24
2016-08-15T00:07:47.651Z,24.27
2016-08-15T00:07:57.646Z,24.18
2016-08-15T00:08:07.644Z,24.24
2016-08-15T00:08:17.643Z,24.16
2016-08-15T00:08:27.641Z,24.25
2016-08-15T00:08:37.635Z,24.13
2016-08-15T00:08:47.636Z,24.27
2016-08-15T00:08:57.634Z,24.24
2016-08-15T00:09:07.632Z,24.18
2016-08-15T00:09:17.630Z,24.18
2016-08-15T00:09:27.627Z,24.24
2016-08-15T00:09:37.630Z,24.28
2016-08-15T00:09:47.626Z,24.25
2016-08-15T00:09:57.621Z,24.21
2016-08-15T00:10:07.619Z,24.18
2016-08-15T00:10:17.622Z,24.21
2016-08-15T00:10:27.617Z,24.2
2016-08-15T00:10:37.613Z,24.21
2016-08-15T00:10:47.616Z,24.25
2016-08-15T00:10:57.614Z,24.24
2016-08-15T00:11:07.610Z,24.21
2016-08-15T00:11:17.607Z,24.27
2016-08-15T00:11:27.605Z,24.16
2016-08-15T00:11:37.602Z,24.27
2016-08-15T00:11:47.603Z,24.18
2016-08-15T00:11:57.606Z,24.25
2016-08-15T00:12:07.598Z,24.16
2016-08-15T00:12:17.646Z,24.18
2016-08-15T00:12:27.591Z,24.27
2016-08-15T00:12:37.591Z,24.22
2016-08-15T00:12:47.591Z,24.21
2016-08-15T00:12:57.587Z,24.28
2016-08-15T00:13:07.585Z,24.27
2016-08-15T00:13:17.585Z,24.27
2016-08-15T00:13:27.584Z,24.24
2016-08-15T00:13:37.579Z,24.16
2016-08-15T00:13:47.579Z,24.21
2016-08-15T00:13:57.574Z,24.21
2016-08-15T00:14:07.577Z,24.3
2016-08-15T00:14:17.624Z,24.22
2016-08-15T00:14:27.575Z,24.13
2016-08-15T00:14:37.569Z,24.16
2016-08-15T00:14:47.572Z,24.16
2016-08-15T00:14:57.579Z,24.22
2016-08-15T00:15:07.563Z,24.25
2016-08-15T00:15:17.560Z,24.16
2016-08-15T00:15:27.560Z,24.18
2016-08-15T00:15:37.562Z,24.3
2016-08-15T00:15:47.561Z,24.15
2016-08-15T00:15:57.555Z,24.27
2016-08-15T00:16:07.553Z,24.22
2016-08-15T00:16:17.549Z,24.25
2016-08-15T00:16:27.550Z,24.18
2016-08-15T00:16:37.548Z,24.18
2016-08-15T00:16:47.544Z,24.18
2016-08-15T00:16:57.544Z,24.27
2016-08-15T00:17:07.544Z,24.2
2016-08-15T00:17:17.539Z,24.27
2016-08-15T00:17:27.537Z,24.13
2016-08-15T00:17:37.535Z,24.21
2016-08-15T00:17:47.538Z,24.15
2016-08-15T00:17:56.803Z,24.24
2016-08-15T00:18:07.531Z,24.2
2016-08-15T00:18:17.527Z,24.22
2016-08-15T00:18:27.532Z,24.22
2016-08-15T00:18:37.523Z,24.16
2016-08-15T00:18:47.523Z,24.24
2016-08-15T00:18:57.520Z,24.13
2016-08-15T00:19:07.518Z,24.13
2016-08-15T00:19:17.517Z,24.16
2016-08-15T00:19:27.521Z,24.22
2016-08-15T00:19:37.518Z,24.21
2016-08-15T00:19:47.518Z,24.18
2016-08-15T00:19:57.507Z,24.16
2016-08-15T00:20:07.512Z,24.21
2016-08-15T00:20:17.505Z,24.13
2016-08-15T00:20:27.504Z,24.13
2016-08-15T00:20:37.505Z,24.18
2016-08-15T00:20:47.502Z,24.16
2016-08-15T00:20:57.500Z,24.12
2016-08-15T00:21:07.494Z,24.13
2016-08-15T00:21:17.493Z,24.15
2016-08-15T00:21:27.493Z,24.16
2016-08-15T00:21:37.489Z,24.21
2016-08-15T00:21:47.487Z,24.21
2016-08-15T00:21:57.488Z,24.2
2016-08-15T00:22:07.484Z,24.24
2016-08-15T00:22:17.481Z,24.22
2016-08-15T00:22:27.480Z,24.18
2016-08-15T00:22:37.482Z,24.13
2016-08-15T00:22:47.480Z,24.22
2016-08-15T00:22:57.478Z,24.2
2016-08-15T00:23:07.474Z,24.18
2016-08-15T00:23:17.469Z,24.2
2016-08-15T00:23:27.468Z,24.24
2016-08-15T00:23:37.465Z,24.28
2016-08-15T00:23:47.466Z,24.16
2016-08-15T00:23:57.466Z,24.13
2016-08-15T00:24:07.463Z,24.18
2016-08-15T00:24:17.461Z,24.13
2016-08-15T00:24:27.457Z,24.21
2016-08-15T00:24:37.454Z,24.21
2016-08-15T00:24:47.455Z,24.21
2016-08-15T00:24:57.451Z,24.21
2016-08-15T00:25:07.453Z,24.12
2016-08-15T00:25:17.448Z,24.1
2016-08-15T00:25:27.445Z,24.16
2016-08-15T00:25:37.447Z,24.18
2016-08-15T00:25:47.442Z,24.18
2016-08-15T00:25:57.442Z,24.2
2016-08-15T00:26:07.437Z,24.18
2016-08-15T00:26:17.436Z,24.24
2016-08-15T00:26:27.431Z,24.2
2016-08-15T00:26:37.435Z,24.13
2016-08-15T00:26:47.432Z,24.18
2016-08-15T00:26:57.432Z,24.16
2016-08-15T00:27:07.426Z,24.12
2016-08-15T00:27:17.425Z,24.16
2016-08-15T00:27:27.425Z,24.18
2016-08-15T00:27:37.421Z,24.13
2016-08-15T00:27:47.422Z,24.16
2016-08-15T00:27:57.421Z,24.16
2016-08-15T00:28:07.417Z,24.15
2016-08-15T00:28:17.412Z,24.2
2016-08-15T00:28:27.410Z,24.18
2016-08-15T00:28:37.411Z,24.13
2016-08-15T00:28:47.413Z,24.16
2016-08-15T00:28:57.406Z,24.21
2016-08-15T00:29:06.673Z,24.18
2016-08-15T00:29:17.401Z,24.13
2016-08-15T00:29:27.401Z,24.13
2016-08-15T00:29:37.408Z,24.21
2016-08-15T00:29:47.395Z,24.13
2016-08-15T00:29:57.402Z,24.1
2016-08-15T00:30:07.395Z,24.1
2016-08-15T00:30:17.390Z,24.16
2016-08-15T00:30:27.387Z,24.09
2016-08-15T00:30:37.388Z,24.12
2016-08-15T00:30:47.385Z,24.13
2016-08-15T00:30:57.382Z,24.21
2016-08-15T00:31:07.382Z,24.12
2016-08-15T00:31:17.383Z,24.16
2016-08-15T00:31:27.380Z,24.16
2016-08-15T00:31:37.376Z,24.12
2016-08-15T00:31:47.381Z,24.15
2016-08-15T00:31:57.372Z,24.15
2016-08-15T00:32:07.369Z,24.13
2016-08-15T00:32:17.371Z,24.12
2016-08-15T00:32:27.364Z,24.15
2016-08-15T00:32:37.362Z,24.1
2016-08-15T00:32:47.364Z,24.15
2016-08-15T00:32:57.361Z,24.16
2016-08-15T00:33:07.363Z,24.16
2016-08-15T00:33:17.358Z,24.16
2016-08-15T00:33:27.365Z,24.13
2016-08-15T00:33:37.351Z,24.08
2016-08-15T00:33:47.350Z,24.09
2016-08-15T00:33:57.350Z,24.16
2016-08-15T00:34:07.347Z,24.12
2016-08-15T00:34:17.350Z,24.16
2016-08-15T00:34:26.614Z,24.13
2016-08-15T00:34:37.342Z,24.16
2016-08-15T00:34:47.339Z,24.18
2016-08-15T00:34:57.339Z,24.08
2016-08-15T00:35:07.335Z,24.13
2016-08-15T00:35:17.335Z,24.16
2016-08-15T00:35:27.337Z,24.16
2016-08-15T00:35:37.328Z,24.1
2016-08-15T00:35:47.332Z,24.1
2016-08-15T00:35:57.326Z,24.13
2016-08-15T00:36:07.328Z,24.12
2016-08-15T00:36:17.323Z,24.09
2016-08-15T00:36:27.324Z,24.12
2016-08-15T00:36:37.318Z,24.13
2016-08-15T00:36:47.322Z,24.2
2016-08-15T00:36:57.313Z,24.13
2016-08-15T00:37:07.316Z,24.16
2016-08-15T00:37:17.312Z,24.18
2016-08-15T00:37:27.310Z,24.1
2016-08-15T00:37:37.310Z,24.1
2016-08-15T00:37:47.303Z,24.16
2016-08-15T00:37:57.305Z,24.1
2016-08-15T00:38:07.302Z,24.16
2016-08-15T00:38:17.299Z,24.15
2016-08-15T00:38:27.298Z,24.1
2016-08-15T00:38:37.296Z,24.12
2016-08-15T00:38:47.292Z,24.2
2016-08-15T00:38:57.289Z,24.15
2016-08-15T00:39:07.290Z,24.13
2016-08-15T00:39:17.290Z,24.15
2016-08-15T00:39:27.288Z,24.12
2016-08-15T00:39:37.284Z,24.1
2016-08-15T00:39:47.287Z,24.12
2016-08-15T00:39:57.282Z,24.13
2016-08-15T00:40:07.278Z,24.12
2016-08-15T00:40:17.277Z,24.1
2016-08-15T00:40:27.275Z,24.06
2016-08-15T00:40:37.274Z,24.18
2016-08-15T00:40:47.269Z,24.09
2016-08-15T00:40:57.270Z,24.12
2016-08-15T00:41:07.269Z,24.09
2016-08-15T00:41:17.266Z,24.1
2016-08-15T00:41:27.262Z,24.13
2016-08-15T00:41:37.259Z,24.13
2016-08-15T00:41:47.259Z,24.1
2016-08-15T00:41:57.259Z,24.18
2016-08-15T00:42:07.258Z,24.12
2016-08-15T00:42:17.258Z,24.12
2016-08-15T00:42:27.253Z,24.06
2016-08-15T00:42:37.256Z,24.09
2016-08-15T00:42:47.251Z,24.13
2016-08-15T00:42:57.246Z,24.16
2016-08-15T00:43:07.243Z,24.13
2016-08-15T00:43:17.244Z,24.18
2016-08-15T00:43:27.240Z,24.08
2016-08-15T00:43:37.241Z,24.18
2016-08-15T00:43:46.512Z,24.1
2016-08-15T00:43:57.238Z,24.09
2016-08-15T00:44:07.238Z,24.08
2016-08-15T00:44:17.230Z,24.08
2016-08-15T00:44:27.230Z,24.1
2016-08-15T00:44:37.226Z,24.18
2016-08-15T00:44:47.226Z,24.1
2016-08-15T00:44:57.222Z,24.15
2016-08-15T00:45:07.222Z,24.16
2016-08-15T00:45:17.219Z,24.16
2016-08-15T00:45:27.217Z,24.12
2016-08-15T00:45:37.217Z,24.09
2016-08-15T00:45:47.212Z,24.08
2016-08-15T00:45:57.217Z,24.15
2016-08-15T00:46:07.213Z,24.12
2016-08-15T00:46:17.206Z,24.13
2016-08-15T00:46:27.208Z,24.08
2016-08-15T00:46:37.204Z,24.12
2016-08-15T00:46:47.201Z,24.09
2016-08-15T00:46:56.472Z,24.12
2016-08-15T00:47:07.202Z,24.08
2016-08-15T00:47:17.201Z,24.1
2016-08-15T00:47:27.199Z,24.1
2016-08-15T00:47:37.195Z,24.18
2016-08-15T00:47:46.461Z,24.09
2016-08-15T00:47:57.191Z,24.1
2016-08-15T00:48:07.188Z,24.16
2016-08-15T00:48:17.186Z,24.15
2016-08-15T00:48:27.192Z,24.09
2016-08-15T00:48:37.185Z,24.16
2016-08-15T00:48:47.182Z,24.15
2016-08-15T00:48:57.175Z,24.09
2016-08-15T00:49:07.179Z,24.09
2016-08-15T00:49:17.173Z,24.12
2016-08-15T00:49:26.442Z,24.08
2016-08-15T00:49:37.172Z,24.12
2016-08-15T00:49:47.169Z,24.16
2016-08-15T00:49:56.436Z,24.08
2016-08-15T00:50:07.180Z,24.13
2016-08-15T00:50:17.167Z,24.13
2016-08-15T00:50:26.430Z,24.13
2016-08-15T00:50:37.158Z,24.12
2016-08-15T00:50:47.158Z,24.21
2016-08-15T00:50:57.153Z,24.13
2016-08-15T00:51:07.153Z,24.15
2016-08-15T00:51:17.153Z,24.08
2016-08-15T00:51:27.151Z,24.15
2016-08-15T00:51:37.148Z,24.09
2016-08-15T00:51:47.145Z,24.12
2016-08-15T00:51:57.143Z,24.16
2016-08-15T00:52:07.148Z,24.18
2016-08-15T00:52:17.139Z,24.12
2016-08-15T00:52:27.139Z,24.12
2016-08-15T00:52:37.135Z,24.08
2016-08-15T00:52:47.135Z,24.12
2016-08-15T00:52:57.132Z,24.09
2016-08-15T00:53:07.132Z,24.2
2016-08-15T00:53:17.129Z,24.1
2016-08-15T00:53:27.131Z,24.13
2016-08-15T00:53:37.122Z,24.13
2016-08-15T00:53:47.122Z,24.13
2016-08-15T00:53:57.124Z,24.16
2016-08-15T00:54:07.117Z,24.12
2016-08-15T00:54:17.117Z,24.13
2016-08-15T00:54:27.116Z,24.12
2016-08-15T00:54:37.112Z,24.16
2016-08-15T00:54:47.110Z,24.15
2016-08-15T00:54:57.113Z,24.2
2016-08-15T00:55:07.112Z,24.13
2016-08-15T00:55:17.104Z,24.13
2016-08-15T00:55:27.104Z,24.15
2016-08-15T00:55:37.100Z,24.15
2016-08-15T00:55:47.102Z,24.1
2016-08-15T00:55:57.097Z,24.09
2016-08-15T00:56:06.366Z,24.18
2016-08-15T00:56:17.093Z,24.15
2016-08-15T00:56:27.091Z,24.16
2016-08-15T00:56:37.094Z,24.15
2016-08-15T00:56:47.090Z,24.15
2016-08-15T00:56:57.088Z,24.1
2016-08-15T00:57:07.085Z,24.12
2016-08-15T00:57:17.085Z,24.15
2016-08-15T00:57:27.085Z,24.09
2016-08-15T00:57:37.080Z,24.16
2016-08-15T00:57:47.083Z,24.13
2016-08-15T00:57:57.076Z,24.13
2016-08-15T00:58:07.077Z,24.12
2016-08-15T00:58:17.070Z,24.16
2016-08-15T00:58:27.073Z,24.1
2016-08-15T00:58:36.343Z,24.13
2016-08-15T00:58:47.066Z,24.16
2016-08-15T00:58:57.066Z,24.16
2016-08-15T00:59:07.064Z,24.16
2016-08-15T00:59:17.061Z,24.16
2016-08-15T00:59:27.059Z,24.16
2016-08-15T00:59:37.055Z,24.15
2016-08-15T00:59:47.053Z,24.15
2016-08-15T00:59:57.053Z,24.15
2016-08-15T01:00:06.321Z,24.16
2016-08-15T01:00:17.054Z,24.18
2016-08-15T01:00:27.056Z,24.13
2016-08-15T01:00:37.046Z,24.15
2016-08-15T01:00:47.044Z,24.24
2016-08-15T01:00:57.043Z,24.16
2016-08-15T01:01:07.039Z,24.18
2016-08-15T01:01:17.037Z,24.13
2016-08-15T01:01:27.038Z,24.1
2016-08-15T01:01:37.035Z,24.13
2016-08-15T01:01:47.033Z,24.16
2016-08-15T01:01:57.029Z,24.18
2016-08-15T01:02:07.030Z,24.18
2016-08-15T01:02:17.025Z,24.18
2016-08-15T01:02:27.024Z,24.16
2016-08-15T01:02:37.022Z,24.16
2016-08-15T01:02:47.023Z,24.2
2016-08-15T01:02:57.017Z,24.16
2016-08-15T01:03:07.018Z,24.2
2016-08-15T01:03:17.013Z,24.16
2016-08-15T01:03:27.013Z,24.18
2016-08-15T01:03:37.011Z,24.13
2016-08-15T01:03:47.013Z,24.15
2016-08-15T01:03:57.007Z,24.2
2016-08-15T01:04:07.006Z,24.13
2016-08-15T01:04:17.005Z,24.15
2016-08-15T01:04:27.000Z,24.21
2016-08-15T01:04:37.012Z,24.13
2016-08-15T01:04:46.997Z,24.13
2016-08-15T01:04:56.996Z,24.16
2016-08-15T01:05:06.994Z,24.12
2016-08-15T01:05:16.995Z,24.13
2016-08-15T01:05:26.989Z,24.12
2016-08-15T01:05:36.994Z,24.15
2016-08-15T01:05:46.989Z,24.13
2016-08-15T01:05:56.255Z,24.15
2016-08-15T01:06:06.983Z,24.12
2016-08-15T01:06:16.979Z,24.13
2016-08-15T01:06:26.249Z,24.18
2016-08-15T01:06:36.979Z,24.18
2016-08-15T01:06:46.977Z,24.15
2016-08-15T01:06:56.973Z,24.15
2016-08-15T01:07:06.971Z,24.09
2016-08-15T01:07:16.969Z,24.1
2016-08-15T01:07:26.967Z,24.09
2016-08-15T01:07:36.979Z,24.12
2016-08-15T01:07:46.961Z,24.12
2016-08-15T01:07:56.963Z,24.09
2016-08-15T01:08:06.961Z,24.1
2016-08-15T01:08:16.956Z,24.12
2016-08-15T01:08:26.954Z,24.09
2016-08-15T01:08:36.955Z,24.09
2016-08-15T01:08:46.952Z,24.12
2016-08-15T01:08:56.948Z,24.12
2016-08-15T01:09:06.950Z,24.08
2016-08-15T01:09:16.946Z,24.12
2016-08-15T01:09:26.945Z,24.09
2016-08-15T01:09:36.946Z,24.08
2016-08-15T01:09:46.943Z,24.08
2016-08-15T01:09:56.211Z,24.12
2016-08-15T01:10:06.940Z,24.13
2016-08-15T01:10:16.936Z,24.09
2016-08-15T01:10:26.934Z,24.06
2016-08-15T01:10:36.930Z,24.08
2016-08-15T01:10:46.929Z,24.1
2016-08-15T01:10:56.932Z,24.06
2016-08-15T01:11:06.198Z,24.15
2016-08-15T01:11:16.924Z,24.06
2016-08-15T01:11:26.923Z,24.08
2016-08-15T01:11:36.919Z,24.15
2016-08-15T01:11:46.919Z,24.09
2016-08-15T01:11:56.919Z,24.1
2016-08-15T01:12:06.913Z,24.1
2016-08-15T01:12:16.912Z,24.08
2016-08-15T01:12:26.909Z,24.09
2016-08-15T01:12:36.906Z,24.1
2016-08-15T01:12:46.909Z,24.15
2016-08-15T01:12:56.904Z,24.13
2016-08-15T01:13:06.906Z,24.09
2016-08-15T01:13:16.903Z,24.1
2016-08-15T01:13:26.900Z,24.18
2016-08-15T01:13:36.896Z,24.05
2016-08-15T01:13:46.893Z,24.08
2016-08-15T01:13:56.893Z,24.09
2016-08-15T01:14:06.892Z,24.09
2016-08-15T01:14:16.888Z,24.09
2016-08-15T01:14:26.887Z,24.09
2016-08-15T01:14:36.887Z,24.09
2016-08-15T01:14:46.881Z,24.15
2016-08-15T01:14:56.882Z,24.08
2016-08-15T01:15:06.879Z,24.09
2016-08-15T01:15:16.877Z,24.06
2016-08-15T01:15:26.877Z,24.15
2016-08-15T01:15:36.879Z,24.09
2016-08-15T01:15:46.882Z,24.09
2016-08-15T01:15:56.871Z,24.08
2016-08-15T01:16:06.871Z,24.1
2016-08-15T01:16:16.864Z,24.09
2016-08-15T01:16:26.870Z,24.1
2016-08-15T01:16:36.864Z,24.08
2016-08-15T01:16:46.858Z,24.08
2016-08-15T01:16:56.859Z,24.05
2016-08-15T01:17:06.856Z,24.09
2016-08-15T01:17:16.854Z,24.06
2016-08-15T01:17:26.852Z,24.08
2016-08-15T01:17:36.855Z,24.08
2016-08-15T01:17:46.850Z,24.08
2016-08-15T01:17:56.845Z,24.06
2016-08-15T01:18:06.850Z,24.05
2016-08-15T01:18:16.844Z,24.09
2016-08-15T01:18:26.843Z,24.08
2016-08-15T01:18:36.840Z,24.08
2016-08-15T01:18:46.838Z,24.1
2016-08-15T01:18:56.839Z,24.05
2016-08-15T01:19:06.831Z,24.06
2016-08-15T01:19:16.832Z,24.08
2016-08-15T01:19:26.828Z,24.1
2016-08-15T01:19:36.833Z,24.06
2016-08-15T01:19:46.825Z,24.1
2016-08-15T01:19:56.830Z,24.05
2016-08-15T01:20:06.823Z,24.1
2016-08-15T01:20:16.819Z,24.08
2016-08-15T01:20:26.816Z,24.08
2016-08-15T01:20:36.818Z,24.09
2016-08-15T01:20:46.814Z,24.09
2016-08-15T01:20:56.815Z,24.06
2016-08-15T01:21:06.811Z,24.1
2016-08-15T01:21:16.813Z,24.06
2016-08-15T01:21:26.808Z,24.06
2016-08-15T01:21:36.805Z,24.09
2016-08-15T01:21:46.802Z,24.12
2016-08-15T01:21:56.070Z,24.06
2016-08-15T01:22:06.801Z,24.1
2016-08-15T01:22:16.799Z,24.12
2016-08-15T01:22:26.798Z,24.1
2016-08-15T01:22:36.796Z,24.03
2016-08-15T01:22:46.792Z,24.1
2016-08-15T01:22:56.789Z,24.09
2016-08-15T01:23:06.788Z,24.08
2016-08-15T01:23:16.787Z,24.09
2016-08-15T01:23:26.785Z,24.05
2016-08-15T01:23:36.784Z,24.15
2016-08-15T01:23:46.784Z,24.08
2016-08-15T01:23:56.779Z,24.05
2016-08-15T01:24:06.775Z,24.1
2016-08-15T01:24:16.779Z,24.03
2016-08-15T01:24:26.045Z,24.05
2016-08-15T01:24:36.045Z,24.08
2016-08-15T01:24:46.771Z,24.1
2016-08-15T01:24:56.768Z,24.06
2016-08-15T01:25:06.765Z,24.05
2016-08-15T01:25:16.763Z,24.09
2016-08-15T01:25:26.761Z,24.03
2016-08-15T01:25:36.761Z,24.05
2016-08-15T01:25:46.757Z,24.05
2016-08-15T01:25:56.765Z,24.05
2016-08-15T01:26:06.753Z,24.05
2016-08-15T01:26:16.754Z,24.05
2016-08-15T01:26:26.752Z,24.08
2016-08-15T01:26:36.018Z,24.08
2016-08-15T01:26:46.748Z,24.09
2016-08-15T01:26:56.745Z,24.09
2016-08-15T01:27:06.745Z,24.06
2016-08-15T01:27:16.741Z,24.06
2016-08-15T01:27:26.745Z,24.06
2016-08-15T01:27:36.739Z,24.06
2016-08-15T01:27:46.737Z,24.05
2016-08-15T01:27:56.733Z,24.06
2016-08-15T01:28:06.735Z,24.1
2016-08-15T01:28:16.731Z,24.05
2016-08-15T01:28:26.726Z,24.09
2016-08-15T01:28:36.727Z,24.05
2016-08-15T01:28:46.724Z,24.08
2016-08-15T01:28:56.723Z,24.09
2016-08-15T01:29:06.721Z,24.08
2016-08-15T01:29:16.720Z,24.06
2016-08-15T01:29:26.715Z,24.06
2016-08-15T01:29:36.715Z,24.03
2016-08-15T01:29:46.712Z,24.06
2016-08-15T01:29:56.727Z,24.08
2016-08-15T01:30:06.715Z,24.06
2016-08-15T01:30:16.711Z,24.08
2016-08-15T01:30:26.702Z,24.05
2016-08-15T01:30:36.706Z,24.05
2016-08-15T01:30:46.703Z,24.05
2016-08-15T01:30:56.697Z,24.06
2016-08-15T01:31:06.696Z,24.09
2016-08-15T01:31:16.700Z,24.08
2016-08-15T01:31:26.697Z,24.08
2016-08-15T01:31:36.690Z,24.09
2016-08-15T01:31:46.688Z,24.05
2016-08-15T01:31:56.690Z,24.06
2016-08-15T01:32:06.685Z,24.06
2016-08-15T01:32:16.688Z,24.05
2016-08-15T01:32:26.681Z,24.05
2016-08-15T01:32:36.677Z,24.05
2016-08-15T01:32:46.678Z,24
2016-08-15T01:32:55.948Z,24.03
2016-08-15T01:33:06.678Z,24.03
2016-08-15T01:33:16.671Z,24.09
2016-08-15T01:33:26.670Z,24.03
2016-08-15T01:33:36.668Z,24.05
2016-08-15T01:33:46.668Z,24.06
2016-08-15T01:33:56.665Z,24.03
2016-08-15T01:34:06.663Z,24.03
2016-08-15T01:34:16.664Z,24.06
2016-08-15T01:34:26.660Z,24.13
2016-08-15T01:34:36.659Z,24.06
2016-08-15T01:34:46.664Z,24.06
2016-08-15T01:34:56.661Z,24.06
2016-08-15T01:35:06.651Z,24.06
2016-08-15T01:35:16.647Z,24.05
2016-08-15T01:35:26.654Z,24.03
2016-08-15T01:35:36.646Z,24.05
2016-08-15T01:35:46.645Z,24.1
2016-08-15T01:35:56.642Z,24.05
2016-08-15T01:36:06.645Z,24.03
2016-08-15T01:36:16.636Z,24.08
2016-08-15T01:36:26.636Z,24.06
2016-08-15T01:36:36.635Z,24.06
2016-08-15T01:36:46.636Z,24.08
2016-08-15T01:36:56.630Z,24.09
2016-08-15T01:37:06.629Z,24.05
2016-08-15T01:37:16.624Z,24.05
2016-08-15T01:37:26.625Z,24.03
2016-08-15T01:37:36.623Z,24.06
2016-08-15T01:37:46.621Z,24.06
2016-08-15T01:37:55.890Z,24.08
2016-08-15T01:38:06.621Z,24.09
2016-08-15T01:38:16.615Z,24.03
2016-08-15T01:38:26.613Z,24.03
2016-08-15T01:38:36.612Z,24.09
2016-08-15T01:38:46.611Z,24
2016-08-15T01:38:56.605Z,24.06
2016-08-15T01:39:06.604Z,24.06
2016-08-15T01:39:16.602Z,24.08
2016-08-15T01:39:26.602Z,24.08
2016-08-15T01:39:36.602Z,24.06
2016-08-15T01:39:46.605Z,24.08
2016-08-15T01:39:56.595Z,24.03
2016-08-15T01:40:06.593Z,24.05
2016-08-15T01:40:16.592Z,24.08
2016-08-15T01:40:26.594Z,24.06
2016-08-15T01:40:36.589Z,24.08
2016-08-15T01:40:46.587Z,24
2016-08-15T01:40:56.584Z,24.05
2016-08-15T01:41:06.585Z,24.08
2016-08-15T01:41:16.580Z,24.02
2016-08-15T01:41:26.579Z,24.06
2016-08-15T01:41:36.580Z,24
2016-08-15T01:41:46.578Z,24.05
2016-08-15T01:41:56.575Z,24.06
2016-08-15T01:42:06.570Z,24.02
2016-08-15T01:42:16.566Z,24.03
2016-08-15T01:42:26.566Z,24.08
2016-08-15T01:42:36.567Z,24.02
2016-08-15T01:42:46.561Z,24.03
2016-08-15T01:42:56.564Z,24.02
2016-08-15T01:43:06.557Z,23.98
2016-08-15T01:43:16.555Z,23.97
2016-08-15T01:43:26.561Z,24
2016-08-15T01:43:36.558Z,24.03
2016-08-15T01:43:45.825Z,24.03
2016-08-15T01:43:55.823Z,24
2016-08-15T01:44:06.552Z,23.98
2016-08-15T01:44:16.548Z,24.05
2016-08-15T01:44:26.543Z,24.05
2016-08-15T01:44:36.542Z,24.03
2016-08-15T01:44:46.544Z,23.98
2016-08-15T01:44:56.540Z,24.03
2016-08-15T01:45:06.536Z,24.02
2016-08-15T01:45:16.532Z,24
2016-08-15T01:45:26.539Z,24.06
2016-08-15T01:45:36.530Z,23.98
2016-08-15T01:45:46.529Z,24.03
2016-08-15T01:45:56.531Z,24.03
2016-08-15T01:46:06.523Z,24.03
2016-08-15T01:46:16.521Z,24.05
2016-08-15T01:46:26.520Z,24.03
2016-08-15T01:46:36.524Z,24.08
2016-08-15T01:46:46.518Z,24.03
2016-08-15T01:46:56.513Z,23.98
2016-08-15T01:47:06.513Z,24.05
2016-08-15T01:47:16.523Z,24.06
2016-08-15T01:47:26.510Z,24.03
2016-08-15T01:47:36.504Z,24
2016-08-15T01:47:46.511Z,24.03
2016-08-15T01:47:56.503Z,24.06
2016-08-15T01:48:06.499Z,24.09
2016-08-15T01:48:16.501Z,24.03
2016-08-15T01:48:26.497Z,24
2016-08-15T01:48:35.763Z,24.02
2016-08-15T01:48:46.497Z,24.06
2016-08-15T01:48:56.492Z,24.03
2016-08-15T01:49:06.494Z,24.02
2016-08-15T01:49:16.490Z,24.12
2016-08-15T01:49:26.485Z,24.06
2016-08-15T01:49:36.483Z,24.05
2016-08-15T01:49:46.486Z,24.03
2016-08-15T01:49:56.483Z,23.97
2016-08-15T01:50:06.479Z,23.98
2016-08-15T01:50:16.478Z,24.03
2016-08-15T01:50:26.478Z,23.95
2016-08-15T01:50:36.479Z,24
2016-08-15T01:50:46.479Z,24
2016-08-15T01:50:56.484Z,24.03
2016-08-15T01:51:06.466Z,23.98
2016-08-15T01:51:16.465Z,24
2016-08-15T01:51:26.468Z,24.08
2016-08-15T01:51:36.462Z,24.03
2016-08-15T01:51:46.458Z,24.03
2016-08-15T01:51:56.459Z,23.98
2016-08-15T01:52:06.461Z,24.06
2016-08-15T01:52:16.452Z,24.06
2016-08-15T01:52:26.450Z,24.02
2016-08-15T01:52:36.449Z,24.05
2016-08-15T01:52:46.448Z,24.05
2016-08-15T01:52:56.447Z,23.98
2016-08-15T01:53:06.445Z,24.06
2016-08-15T01:53:16.443Z,24
2016-08-15T01:53:26.442Z,24.05
2016-08-15T01:53:36.438Z,24.05
2016-08-15T01:53:46.435Z,24.03
2016-08-15T01:53:56.434Z,24.03
2016-08-15T01:54:05.706Z,24.05
2016-08-15T01:54:16.434Z,24.05
2016-08-15T01:54:25.700Z,24.03
2016-08-15T01:54:36.426Z,23.97
2016-08-15T01:54:46.427Z,24.03
2016-08-15T01:54:56.426Z,24
2016-08-15T01:55:06.428Z,24.06
2016-08-15T01:55:16.425Z,24.06
2016-08-15T01:55:26.425Z,24.03
2016-08-15T01:55:36.429Z,24.03
2016-08-15T01:55:46.427Z,23.98
2016-08-15T01:55:56.418Z,23.98
2016-08-15T01:56:06.410Z,23.97
2016-08-15T01:56:16.410Z,24.03
2016-08-15T01:56:26.405Z,24.03
2016-08-15T01:56:36.405Z,24.02
2016-08-15T01:56:46.402Z,24
2016-08-15T01:56:56.402Z,24.02
2016-08-15T01:57:06.410Z,23.98
2016-08-15T01:57:16.402Z,24.02
2016-08-15T01:57:26.398Z,23.98
2016-08-15T01:57:36.399Z,24.05
2016-08-15T01:57:46.388Z,24.03
2016-08-15T01:57:56.389Z,24
2016-08-15T01:58:06.387Z,24.03
2016-08-15T01:58:16.386Z,24
2016-08-15T01:58:26.389Z,24
2016-08-15T01:58:36.381Z,24.06
2016-08-15T01:58:46.380Z,24.05
2016-08-15T01:58:56.377Z,24.05
2016-08-15T01:59:06.377Z,23.98
2016-08-15T01:59:16.375Z,23.98
2016-08-15T01:59:26.373Z,24.05
2016-08-15T01:59:36.372Z,24.03
2016-08-15T01:59:46.370Z,24
2016-08-15T01:59:56.368Z,24.05
2016-08-15T02:00:06.365Z,24
2016-08-15T02:00:16.366Z,24.03
2016-08-15T02:00:26.361Z,23.97
2016-08-15T02:00:36.357Z,23.98
2016-08-15T02:00:46.357Z,24
2016-08-15T02:00:56.357Z,24.05
2016-08-15T02:01:06.354Z,24
2016-08-15T02:01:16.353Z,24.05
2016-08-15T02:01:26.351Z,24.03
2016-08-15T02:01:36.350Z,24.02
2016-08-15T02:01:46.345Z,24.05
2016-08-15T02:01:56.345Z,24.02
2016-08-15T02:02:06.346Z,23.97
2016-08-15T02:02:16.346Z,24
2016-08-15T02:02:25.617Z,24.05
2016-08-15T02:02:36.337Z,24.03
2016-08-15T02:02:46.336Z,24
2016-08-15T02:02:56.334Z,24.06
2016-08-15T02:03:06.343Z,24.05
2016-08-15T02:03:16.336Z,24.05
2016-08-15T02:03:26.324Z,23.98
2016-08-15T02:03:36.323Z,24
2016-08-15T02:03:46.323Z,24.03
2016-08-15T02:03:56.323Z,24.05
2016-08-15T02:04:06.318Z,24.02
2016-08-15T02:04:16.320Z,24
2016-08-15T02:04:26.315Z,24
2016-08-15T02:04:36.317Z,23.97
2016-08-15T02:04:46.312Z,24
2016-08-15T02:04:56.307Z,24.02
2016-08-15T02:05:06.306Z,24.03
2016-08-15T02:05:15.575Z,24
2016-08-15T02:05:26.304Z,23.98
2016-08-15T02:05:36.505Z,24.03
2016-08-15T02:05:45.572Z,24.05
2016-08-15T02:05:56.302Z,24.02
2016-08-15T02:06:06.295Z,24
2016-08-15T02:06:16.291Z,24
2016-08-15T02:06:25.572Z,24.03
2016-08-15T02:06:36.286Z,24.05
2016-08-15T02:06:46.298Z,24.05
2016-08-15T02:06:56.284Z,24.05
2016-08-15T02:07:05.552Z,23.98
2016-08-15T02:07:16.285Z,24.06
2016-08-15T02:07:26.281Z,23.98
2016-08-15T02:07:36.282Z,23.98
2016-08-15T02:07:46.280Z,24
2016-08-15T02:07:56.274Z,23.97
2016-08-15T02:08:06.274Z,24.02
2016-08-15T02:08:16.272Z,24
2016-08-15T02:08:26.276Z,24.02
2016-08-15T02:08:36.266Z,23.98
2016-08-15T02:08:46.265Z,23.94
2016-08-15T02:08:55.534Z,24.05
2016-08-15T02:09:06.261Z,24.02
2016-08-15T02:09:16.259Z,24.02
2016-08-15T02:09:25.529Z,24
2016-08-15T02:09:36.257Z,24.03
2016-08-15T02:09:46.254Z,24.05